Time;durP1;ratioP1;P1;durP2;ratioP2;P2;SDS_P1;SDS_P2;PMS_P1;PMS_P2;Temp;Humidity;BMP_temperature;BMP_pressure;BME280_temperature;BME280_humidity;BME280_pressure;Samples;Min_cycle;Max_cycle;Signal;HPM_P1;HPM_P2
2022/12/15 00:39:57;;;;;;;12.63;6.75;;;-1.50;99.90;;;;;;5056262;28;20136;-70
2022/12/15 00:42:27;;;;;;;14.70;7.13;;;-1.60;99.90;;;;;;5073087;28;20076;-70
2022/12/15 00:44:54;;;;;;;11.85;6.07;;;-1.60;99.90;;;;;;5056432;28;20051;-70
2022/12/15 00:47:20;;;;;;;13.20;6.47;;;-1.60;99.90;;;;;;5058038;28;20100;-70
2022/12/15 01:22:41;;;;;;;16.13;7.53;;;-2.10;99.90;;;;;;5055402;28;20052;-69
2022/12/15 01:25:08;;;;;;;13.80;7.60;;;-2.20;99.90;;;;;;5055952;28;20111;-70
2022/12/15 01:27:34;;;;;;;19.17;7.43;;;-2.20;99.90;;;;;;5056615;28;20036;-70
2022/12/15 01:30:00;;;;;;;12.88;8.27;;;-2.20;99.90;;;;;;5053816;28;20042;-69
2022/12/15 01:32:26;;;;;;;14.05;7.30;;;-2.20;99.90;;;;;;5057191;28;20041;-70
2022/12/15 01:34:52;;;;;;;14.27;7.65;;;-2.30;99.90;;;;;;5057295;28;20349;-70
2022/12/15 01:37:18;;;;;;;17.88;7.57;;;-2.30;99.90;;;;;;5053733;28;20119;-71
2022/12/15 01:42:28;;;;;;;11.80;6.82;;;-2.20;99.90;;;;;;5056320;28;20434;-70
2022/12/15 01:45:22;;;;;;;13.93;7.45;;;-2.20;99.90;;;;;;5054224;28;20120;-71
2022/12/15 01:47:53;;;;;;;13.95;7.07;;;-2.30;99.90;;;;;;5055888;28;20029;-69
2022/12/15 01:50:20;;;;;;;17.50;7.72;;;-2.40;99.90;;;;;;5056427;28;20123;-69
2022/12/15 01:52:47;;;;;;;13.27;8.15;;;-2.40;99.90;;;;;;5053537;28;20082;-69
2022/12/15 01:55:16;;;;;;;20.70;8.05;;;-2.30;99.90;;;;;;5056890;28;20052;-69
2022/12/15 01:57:42;;;;;;;11.80;7.60;;;-2.40;99.90;;;;;;5055579;28;20033;-71
2022/12/15 02:00:08;;;;;;;11.93;7.15;;;-2.40;99.90;;;;;;5054698;28;20116;-70
2022/12/15 02:02:36;;;;;;;14.50;7.32;;;-2.40;99.90;;;;;;5056977;28;20299;-70
2022/12/15 02:05:03;;;;;;;15.23;7.30;;;-2.40;99.90;;;;;;5056361;28;20067;-70
2022/12/15 02:07:28;;;;;;;13.43;6.97;;;-2.40;99.90;;;;;;5056958;28;20147;-70
2022/12/15 02:09:58;;;;;;;11.30;6.60;;;-2.40;99.90;;;;;;5055938;28;20146;-70
2022/12/15 02:12:29;;;;;;;13.40;7.32;;;-2.40;99.90;;;;;;5058282;28;20032;-70
2022/12/15 02:15:19;;;;;;;18.42;7.55;;;-2.50;99.90;;;;;;5059925;28;20028;-70
2022/12/15 02:18:09;;;;;;;11.90;6.75;;;-2.40;99.90;;;;;;5058366;28;20025;-70
2022/12/15 02:20:40;;;;;;;14.50;7.53;;;-2.40;99.90;;;;;;5059940;28;20032;-70
2022/12/15 02:23:55;;;;;;;15.40;7.65;;;-2.40;99.90;;;;;;5055724;28;20274;-70
2022/12/15 02:26:49;;;;;;;13.75;6.88;;;-2.40;99.90;;;;;;5059891;28;20475;-70
2022/12/15 02:29:39;;;;;;;14.85;6.63;;;-2.40;99.90;;;;;;5061215;28;20039;-70
2022/12/15 02:32:12;;;;;;;11.55;6.78;;;-2.40;99.90;;;;;;5049591;28;20710;-69
2022/12/15 02:34:53;;;;;;;10.68;7.00;;;-2.40;99.90;;;;;;5056743;28;20122;-69
2022/12/15 02:37:23;;;;;;;11.65;6.90;;;-2.40;99.90;;;;;;5056382;28;20039;-70
2022/12/15 02:39:49;;;;;;;15.55;7.38;;;-2.40;99.90;;;;;;5059852;28;20028;-70
2022/12/15 02:42:15;;;;;;;15.38;7.25;;;-2.50;99.90;;;;;;5058523;28;20119;-70
2022/12/15 02:44:50;;;;;;;13.50;6.75;;;-2.50;99.90;;;;;;5060119;28;20083;-70
2022/12/15 02:47:24;;;;;;;13.23;6.25;;;-2.60;99.90;;;;;;5074008;28;20036;-71
2022/12/15 02:50:23;;;;;;;14.60;6.97;;;-2.60;99.90;;;;;;5048258;28;20207;-69
2022/12/15 02:53:16;;;;;;;12.85;7.20;;;-2.60;99.90;;;;;;5042465;28;20049;-69
2022/12/15 02:56:07;;;;;;;16.33;6.45;;;-2.60;99.90;;;;;;5038148;28;20061;-70
2022/12/15 02:58:57;;;;;;;;;;;-2.60;99.90;;;;;;5036625;28;20694;-70
2022/12/15 03:01:29;;;;;;;12.52;6.68;;;-2.60;99.90;;;;;;5040183;28;20295;-70
2022/12/15 03:03:57;;;;;;;13.43;6.97;;;-2.60;99.90;;;;;;5052995;28;20441;-70
2022/12/15 03:06:25;;;;;;;14.52;6.88;;;-2.50;99.90;;;;;;5059128;28;20043;-70
2022/12/15 03:08:51;;;;;;;14.45;6.88;;;-2.50;99.90;;;;;;5057926;28;20105;-71
2022/12/15 03:11:16;;;;;;;11.88;6.18;;;-2.50;99.90;;;;;;5058535;28;20111;-70
2022/12/15 03:13:42;;;;;;;15.20;6.75;;;-2.50;99.90;;;;;;5041491;28;20065;-70
2022/12/15 03:16:07;;;;;;;14.70;6.57;;;-2.50;99.90;;;;;;5040132;28;20347;-70
2022/12/15 03:18:33;;;;;;;13.05;6.82;;;-2.50;99.90;;;;;;5056679;28;20075;-70
2022/12/15 03:20:59;;;;;;;14.52;6.72;;;-2.60;99.90;;;;;;5059108;28;20029;-70
2022/12/15 03:23:24;;;;;;;11.02;6.40;;;-2.60;99.90;;;;;;5055924;28;20091;-70
2022/12/15 03:25:50;;;;;;;13.85;6.90;;;-2.50;99.90;;;;;;5043784;28;20417;-70
2022/12/15 03:28:16;;;;;;;13.57;6.88;;;-2.60;99.90;;;;;;5057563;28;20474;-70
2022/12/15 03:30:41;;;;;;;18.95;7.13;;;-2.60;99.90;;;;;;5058869;28;20039;-69
2022/12/15 03:33:07;;;;;;;14.80;7.03;;;-2.50;99.90;;;;;;5057006;28;20089;-70
2022/12/15 03:35:33;;;;;;;16.33;7.05;;;-2.60;99.90;;;;;;5058740;28;20078;-70
2022/12/15 03:37:59;;;;;;;16.45;7.47;;;-2.60;99.90;;;;;;5045319;28;20389;-70
2022/12/15 03:40:25;;;;;;;13.20;6.50;;;-2.60;99.90;;;;;;5046423;28;20047;-70
2022/12/15 03:42:51;;;;;;;12.15;6.45;;;-2.60;99.90;;;;;;5058648;28;20067;-69
2022/12/15 03:45:22;;;;;;;12.95;7.22;;;-2.60;99.90;;;;;;5057781;28;20052;-70
2022/12/15 03:47:48;;;;;;;15.98;7.13;;;-2.60;99.90;;;;;;5074071;28;20031;-70
2022/12/15 03:50:17;;;;;;;11.70;7.28;;;-2.60;99.90;;;;;;5070887;28;20163;-70
2022/12/15 03:52:43;;;;;;;16.63;7.43;;;-2.70;99.90;;;;;;5058115;28;20063;-69
2022/12/15 03:55:09;;;;;;;17.55;7.85;;;-2.70;99.90;;;;;;5056710;28;20040;-70
2022/12/15 03:57:34;;;;;;;11.18;6.13;;;-2.70;99.90;;;;;;5057399;28;20028;-70
2022/12/15 04:00:00;;;;;;;11.23;5.80;;;-2.60;99.90;;;;;;5060026;28;20086;-70
2022/12/15 04:02:26;;;;;;;16.10;7.22;;;-2.70;99.90;;;;;;5044042;28;20558;-70
2022/12/15 04:04:51;;;;;;;13.60;6.95;;;-2.70;99.90;;;;;;5058513;28;20051;-70
2022/12/15 04:07:17;;;;;;;11.00;6.32;;;-2.80;99.90;;;;;;5059087;28;20081;-70
2022/12/15 04:09:43;;;;;;;16.80;7.20;;;-2.80;99.90;;;;;;5056449;28;20051;-70
2022/12/15 04:12:10;;;;;;;12.20;6.38;;;-2.80;99.90;;;;;;5057851;28;20032;-70
2022/12/15 04:14:41;;;;;;;12.77;7.00;;;-2.80;99.90;;;;;;5052525;28;20082;-70
2022/12/15 04:17:07;;;;;;;13.00;6.57;;;-2.80;99.90;;;;;;5059078;28;20032;-70
2022/12/15 04:20:18;;;;;;;17.90;6.60;;;-2.80;99.90;;;;;;5058694;28;20036;-70
2022/12/15 04:22:19;;;;;;;11.10;6.63;;;-2.80;99.90;;;;;;5058154;28;20063;-70
2022/12/15 05:33:14;;;;;;;10.57;7.05;;;-3.10;99.90;;;;;;5055982;28;20098;-70
2022/12/15 05:35:40;;;;;;;14.05;6.95;;;-3.10;99.90;;;;;;5053052;28;20036;-71
2022/12/15 05:38:06;;;;;;;18.05;7.05;;;-3.10;99.90;;;;;;5053169;28;20034;-70
2022/12/15 05:40:32;;;;;;;12.10;6.82;;;-3.10;99.90;;;;;;5039119;28;20068;-70
2022/12/15 05:42:58;;;;;;;13.02;6.55;;;-3.20;99.90;;;;;;5051091;28;20032;-70
2022/12/15 05:45:24;;;;;;;13.32;6.78;;;-3.20;99.90;;;;;;5057825;28;20395;-70
2022/12/15 05:47:54;;;;;;;11.85;6.85;;;-3.20;99.90;;;;;;5057227;28;20507;-70
2022/12/15 05:50:20;;;;;;;16.30;6.80;;;-3.20;99.90;;;;;;5054005;28;20070;-69
2022/12/15 05:52:48;;;;;;;14.65;6.90;;;-3.20;99.90;;;;;;5053825;28;20492;-71
2022/12/15 05:55:14;;;;;;;15.93;6.88;;;-3.10;99.90;;;;;;5057526;28;20059;-70
2022/12/15 05:57:40;;;;;;;13.68;6.30;;;-3.20;99.90;;;;;;5057296;28;21029;-70
2022/12/15 06:00:07;;;;;;;12.23;6.88;;;-3.20;99.90;;;;;;5058263;28;20154;-70
2022/12/15 06:02:32;;;;;;;14.68;6.53;;;-3.10;99.90;;;;;;5052513;28;20113;-70
2022/12/15 06:04:58;;;;;;;11.40;6.28;;;-3.10;99.90;;;;;;5054783;28;20048;-69
2022/12/15 06:07:23;;;;;;;13.95;7.13;;;-3.10;99.90;;;;;;5054892;28;20035;-70
2022/12/15 06:09:49;;;;;;;16.58;6.28;;;-3.20;99.90;;;;;;5054117;28;20025;-70
2022/12/15 06:12:15;;;;;;;16.75;7.22;;;-3.20;99.90;;;;;;5055327;28;20235;-70
2022/12/15 06:14:41;;;;;;;16.75;7.05;;;-3.20;99.90;;;;;;5048791;28;20028;-71
2022/12/15 06:17:06;;;;;;;12.02;5.95;;;-3.20;99.90;;;;;;5037774;28;20033;-71
2022/12/15 06:19:32;;;;;;;12.90;6.60;;;-3.20;99.90;;;;;;5054324;28;20028;-70
2022/12/15 06:21:58;;;;;;;12.35;6.13;;;-3.20;99.90;;;;;;5056721;28;20111;-71
2022/12/15 06:24:24;;;;;;;9.63;6.00;;;-3.20;99.90;;;;;;5034571;28;20047;-71
2022/12/15 06:26:50;;;;;;;14.35;6.68;;;-3.20;99.90;;;;;;5051878;28;20044;-70
2022/12/15 06:29:16;;;;;;;16.23;6.80;;;-3.10;99.90;;;;;;5054168;28;20074;-70
2022/12/15 06:31:41;;;;;;;12.63;6.82;;;-3.20;99.90;;;;;;5056957;28;20043;-70
2022/12/15 06:34:12;;;;;;;17.05;6.45;;;-3.20;99.90;;;;;;5055977;28;20029;-70
2022/12/15 06:36:38;;;;;;;12.57;6.20;;;-3.20;99.90;;;;;;5056172;28;20044;-70
2022/12/15 06:39:09;;;;;;;17.13;7.28;;;-3.10;99.90;;;;;;5054068;28;20114;-70
2022/12/15 06:41:35;;;;;;;14.18;6.32;;;-3.10;99.90;;;;;;5056024;28;20069;-70
2022/12/15 06:44:01;;;;;;;16.25;6.63;;;-3.10;99.90;;;;;;5052440;28;20058;-71
2022/12/15 06:46:29;;;;;;;16.30;6.93;;;-3.10;99.90;;;;;;5051761;28;20065;-70
2022/12/15 06:48:55;;;;;;;14.73;6.68;;;-3.10;99.90;;;;;;5051809;28;20109;-70
2022/12/15 06:51:21;;;;;;;14.70;6.65;;;-3.10;99.90;;;;;;5050725;28;20033;-70
2022/12/15 06:53:52;;;;;;;10.48;6.63;;;-3.10;99.90;;;;;;5069617;28;20043;-70
2022/12/15 06:56:19;;;;;;;;;;;-3.10;99.90;;;;;;5054367;28;20033;-70
2022/12/15 06:58:49;;;;;;;14.13;5.88;;;-3.10;99.90;;;;;;5057891;28;19912;-70
2022/12/15 07:01:16;;;;;;;17.13;6.43;;;-3.10;99.90;;;;;;5056686;28;20029;-70
2022/12/15 07:03:42;;;;;;;11.55;6.70;;;-3.20;99.90;;;;;;5032614;28;20504;-70
2022/12/15 07:06:11;;;;;;;15.52;7.55;;;-3.20;99.90;;;;;;5055129;28;20032;-70
2022/12/15 07:08:37;;;;;;;13.73;6.13;;;-3.20;99.90;;;;;;5057664;28;20028;-71
2022/12/15 07:11:04;;;;;;;12.20;6.85;;;-3.20;99.90;;;;;;5060661;28;20097;-70
2022/12/15 07:13:30;;;;;;;12.60;6.53;;;-3.30;99.90;;;;;;5059158;28;20077;-70
2022/12/15 07:16:04;;;;;;;11.40;6.65;;;-3.30;99.90;;;;;;5054139;28;20273;-71
2022/12/15 07:18:30;;;;;;;11.90;6.25;;;-3.20;99.90;;;;;;5059052;28;20111;-70
2022/12/15 07:21:01;;;;;;;16.25;6.82;;;-3.20;99.90;;;;;;5056246;28;20555;-71
2022/12/15 07:23:27;;;;;;;18.65;7.38;;;-3.20;99.90;;;;;;5073989;28;20097;-70
2022/12/15 07:25:53;;;;;;;14.98;7.47;;;-3.20;99.90;;;;;;5054219;28;20025;-70
2022/12/15 07:28:18;;;;;;;14.23;7.93;;;-3.10;99.90;;;;;;5055786;28;20466;-71
2022/12/15 07:30:44;;;;;;;17.65;7.13;;;-3.20;99.90;;;;;;5056553;28;20025;-70
2022/12/15 07:33:09;;;;;;;20.95;7.63;;;-3.20;99.90;;;;;;5054276;28;20198;-70
2022/12/15 07:35:35;;;;;;;15.07;7.22;;;-3.20;99.90;;;;;;5057867;28;20024;-71
2022/12/15 07:38:05;;;;;;;16.63;8.48;;;-3.10;99.90;;;;;;5053104;28;20437;-70
2022/12/15 07:40:31;;;;;;;12.90;7.57;;;-3.10;99.90;;;;;;5058021;28;20040;-69
2022/12/15 07:42:57;;;;;;;15.70;7.43;;;-3.10;99.90;;;;;;5055843;28;20079;-70
2022/12/15 07:45:22;;;;;;;11.15;6.80;;;-3.30;99.90;;;;;;5052196;28;20043;-71
2022/12/15 07:47:49;;;;;;;18.50;7.68;;;-3.40;99.90;;;;;;5039515;28;20039;-69
2022/12/15 07:50:17;;;;;;;14.02;6.75;;;-3.40;99.90;;;;;;5057061;28;20431;-70
2022/12/15 07:52:43;;;;;;;18.38;7.82;;;-3.50;99.90;;;;;;5054474;28;20739;-70
2022/12/15 07:55:08;;;;;;;15.85;7.15;;;-3.40;99.90;;;;;;5047864;28;20128;-70
2022/12/15 07:57:34;;;;;;;16.05;7.28;;;-3.40;99.90;;;;;;5055109;28;20034;-70
2022/12/15 08:00:00;;;;;;;14.82;7.40;;;-3.30;99.90;;;;;;5054229;28;20032;-69
2022/12/15 08:02:25;;;;;;;13.88;7.72;;;-3.40;99.90;;;;;;5052611;28;20031;-71
2022/12/15 08:04:51;;;;;;;15.45;7.82;;;-3.30;99.90;;;;;;5052850;28;21428;-70
2022/12/15 08:07:16;;;;;;;14.88;7.78;;;-3.30;99.90;;;;;;5054912;28;20535;-70
2022/12/15 08:09:42;;;;;;;15.95;7.53;;;-3.40;99.90;;;;;;5057748;28;20040;-71
2022/12/15 08:12:08;;;;;;;13.55;7.18;;;-3.50;99.90;;;;;;5059022;28;20029;-70
2022/12/15 08:14:33;;;;;;;13.38;7.32;;;-3.50;99.90;;;;;;5055071;28;20028;-70
2022/12/15 08:16:59;;;;;;;14.88;7.50;;;-3.50;99.90;;;;;;5055713;28;20044;-71
2022/12/15 08:19:25;;;;;;;16.52;7.30;;;-3.50;99.90;;;;;;5056343;28;20124;-71
2022/12/15 08:21:51;;;;;;;12.35;7.15;;;-3.40;99.90;;;;;;5053685;28;20069;-70
2022/12/15 08:24:18;;;;;;;17.67;7.78;;;-3.30;99.90;;;;;;5055380;28;20496;-69
2022/12/15 08:26:44;;;;;;;13.05;7.15;;;-3.30;99.90;;;;;;5057449;28;20471;-70
2022/12/15 08:29:11;;;;;;;17.33;7.18;;;-3.30;99.90;;;;;;5045408;28;20033;-70
2022/12/15 08:31:37;;;;;;;13.93;7.55;;;-3.30;99.90;;;;;;5045489;28;20021;-70
2022/12/15 08:34:04;;;;;;;12.07;7.35;;;-3.30;99.90;;;;;;5036751;28;20051;-70
2022/12/15 08:36:31;;;;;;;13.38;8.18;;;-3.20;99.90;;;;;;5055044;28;20110;-70
2022/12/15 08:38:58;;;;;;;15.80;7.55;;;-3.10;99.90;;;;;;5047235;28;20120;-70
2022/12/15 08:41:27;;;;;;;10.90;7.28;;;-3.20;99.90;;;;;;5041259;28;20036;-70
2022/12/15 08:43:54;;;;;;;19.67;7.78;;;-3.10;99.90;;;;;;5037850;28;20201;-70
2022/12/15 08:46:25;;;;;;;17.17;7.72;;;-3.10;99.90;;;;;;5039842;28;20024;-70
2022/12/15 08:48:54;;;;;;;20.45;8.27;;;-3.00;99.90;;;;;;5042331;28;20028;-70
2022/12/15 08:51:21;;;;;;;21.23;7.72;;;-2.90;99.90;;;;;;5036704;28;20098;-71
2022/12/15 08:53:47;;;;;;;16.80;8.68;;;-2.80;99.90;;;;;;5033620;28;20271;-68
2022/12/15 08:56:16;;;;;;;15.60;8.57;;;-2.60;99.90;;;;;;5042325;28;20021;-71
2022/12/15 08:58:42;;;;;;;19.45;8.00;;;-2.50;99.90;;;;;;5044654;28;20556;-71
2022/12/15 09:01:16;;;;;;;17.48;8.93;;;-2.50;99.90;;;;;;5049466;28;20032;-70
2022/12/15 09:03:42;;;;;;;20.60;8.73;;;-2.40;99.90;;;;;;5043851;28;20036;-71
2022/12/15 09:06:16;;;;;;;15.57;8.23;;;-2.40;99.90;;;;;;5045344;28;20739;-71
2022/12/15 09:08:41;;;;;;;17.60;7.72;;;-2.40;99.90;;;;;;5043001;28;20668;-71
2022/12/15 09:11:07;;;;;;;18.90;8.20;;;-2.30;99.90;;;;;;5046044;28;20035;-71
2022/12/15 09:13:33;;;;;;;15.40;8.60;;;-2.40;99.90;;;;;;5046286;28;20119;-70
2022/12/15 09:16:05;;;;;;;14.40;8.43;;;-2.40;99.90;;;;;;5046292;28;20067;-70
2022/12/15 09:18:32;;;;;;;16.13;8.48;;;-2.30;99.90;;;;;;5026334;28;20472;-70
2022/12/15 09:21:06;;;;;;;15.20;8.40;;;-2.30;99.90;;;;;;5046312;28;20052;-70
2022/12/15 09:23:32;;;;;;;17.02;8.55;;;-2.30;99.90;;;;;;5052369;28;20514;-71
2022/12/15 09:26:14;;;;;;;13.02;7.57;;;-2.30;99.90;;;;;;5050363;28;20506;-71
2022/12/15 09:28:44;;;;;;;14.52;8.27;;;-2.30;99.90;;;;;;5046804;28;20688;-71
2022/12/15 09:31:12;;;;;;;17.83;8.63;;;-2.30;99.90;;;;;;5054449;28;20060;-71
2022/12/15 09:33:39;;;;;;;17.77;9.13;;;-2.30;99.90;;;;;;5040756;28;20057;-71
2022/12/15 09:36:06;;;;;;;19.75;9.40;;;-2.20;99.90;;;;;;5051627;28;20554;-72
2022/12/15 09:38:33;;;;;;;14.57;8.55;;;-2.10;99.90;;;;;;5055712;28;20059;-74
2022/12/15 09:41:07;;;;;;;17.77;9.23;;;-1.90;99.60;;;;;;5054691;28;20095;-72
2022/12/15 09:43:34;;;;;;;18.77;8.80;;;-1.60;99.10;;;;;;5035779;28;20386;-72
2022/12/15 09:46:07;;;;;;;22.35;8.70;;;-1.30;97.70;;;;;;5035670;28;20258;-71
2022/12/15 09:48:40;;;;;;;22.23;9.20;;;-0.90;97.10;;;;;;5035706;28;20333;-73
2022/12/15 09:51:13;;;;;;;16.90;9.02;;;-0.60;94.90;;;;;;5053134;28;20060;-70
2022/12/15 09:53:38;;;;;;;17.25;8.60;;;-0.30;94.40;;;;;;5046406;28;20037;-71
2022/12/15 09:56:11;;;;;;;13.38;7.72;;;-0.10;93.90;;;;;;5034149;28;20032;-72
2022/12/15 09:58:51;;;;;;;15.93;8.27;;;0.10;92.50;;;;;;5034530;28;20021;-73
2022/12/15 10:01:43;;;;;;;16.30;7.72;;;0.10;92.10;;;;;;5037126;28;20504;-72
2022/12/15 10:04:13;;;;;;;19.38;8.45;;;0.30;91.70;;;;;;5015567;28;20128;-72
2022/12/15 10:06:53;;;;;;;15.45;7.78;;;0.40;91.10;;;;;;5049003;28;20181;-73
2022/12/15 10:09:26;;;;;;;12.70;8.00;;;0.80;90.40;;;;;;5054094;28;20033;-72
2022/12/15 10:12:11;;;;;;;17.00;8.65;;;0.90;88.40;;;;;;5036553;28;20262;-72
2022/12/15 10:15:02;;;;;;;19.08;8.30;;;1.10;87.70;;;;;;5053240;28;20150;-72
2022/12/15 10:17:31;;;;;;;12.90;8.07;;;0.90;87.80;;;;;;5053696;28;20196;-72
2022/12/15 10:20:21;;;;;;;20.33;8.38;;;1.10;87.60;;;;;;5054270;28;20047;-72
2022/12/15 10:22:47;;;;;;;20.30;8.25;;;1.30;88.10;;;;;;5056141;28;20032;-72
2022/12/15 10:25:20;;;;;;;16.98;7.32;;;1.60;84.50;;;;;;5052315;28;20036;-72
2022/12/15 10:28:04;;;;;;;17.02;7.70;;;1.50;83.30;;;;;;5054648;28;20396;-72
2022/12/15 10:30:30;;;;;;;15.98;8.75;;;1.60;84.80;;;;;;5048257;28;20164;-72
2022/12/15 10:33:19;;;;;;;16.02;8.05;;;1.50;84.00;;;;;;5037563;28;20539;-72
2022/12/15 10:35:46;;;;;;;14.20;7.70;;;1.60;85.20;;;;;;5041227;28;20384;-72
2022/12/15 10:38:24;;;;;;;15.13;7.45;;;1.80;85.00;;;;;;5040354;28;20087;-71
2022/12/15 10:40:51;;;;;;;16.58;8.43;;;2.10;84.30;;;;;;5056657;28;20032;-72
2022/12/15 10:43:25;;;;;;;15.48;8.05;;;2.40;82.20;;;;;;5059599;28;20502;-71
2022/12/15 10:46:00;;;;;;;16.38;7.93;;;2.80;79.60;;;;;;5060954;28;20101;-72
2022/12/15 10:48:26;;;;;;;15.23;8.60;;;3.20;76.00;;;;;;5061201;28;20028;-72
2022/12/15 10:51:09;;;;;;;17.90;9.40;;;3.40;73.60;;;;;;5061324;28;20043;-70
2022/12/15 10:53:44;;;;;;;16.73;8.10;;;3.60;72.20;;;;;;5058927;28;20052;-70
2022/12/15 10:56:22;;;;;;;15.02;8.15;;;3.80;71.40;;;;;;5040642;28;20094;-71
2022/12/15 10:58:51;;;;;;;15.05;8.40;;;4.10;70.70;;;;;;5057473;28;20070;-72
2022/12/15 11:01:32;;;;;;;18.73;7.82;;;4.30;68.70;;;;;;5058473;28;20025;-72
2022/12/15 11:03:58;;;;;;;15.88;8.23;;;4.60;67.10;;;;;;5056885;28;20041;-72
2022/12/15 11:06:30;;;;;;;18.05;8.05;;;4.80;66.20;;;;;;5054382;28;20060;-72
2022/12/15 11:09:07;;;;;;;14.63;8.43;;;5.10;64.50;;;;;;5056544;28;20036;-72
2022/12/15 11:14:43;;;;;;;14.30;8.05;;;5.70;62.30;;;;;;5044718;28;20124;-71
2022/12/15 11:17:14;;;;;;;15.15;7.95;;;5.60;61.90;;;;;;5051634;28;20034;-72
2022/12/15 11:19:54;;;;;;;14.75;8.60;;;5.70;61.10;;;;;;5045033;28;20407;-72
2022/12/15 11:22:27;;;;;;;16.08;9.20;;;5.70;61.50;;;;;;5053435;28;20194;-71
2022/12/15 11:25:22;;;;;;;13.05;7.93;;;5.60;62.80;;;;;;5038928;28;20256;-71
2022/12/15 11:27:50;;;;;;;12.95;8.68;;;5.40;64.10;;;;;;4998242;28;20439;-71
2022/12/15 11:30:19;;;;;;;16.80;8.38;;;5.30;65.70;;;;;;5043601;28;20136;-72
2022/12/15 11:32:57;;;;;;;15.68;8.52;;;5.30;65.20;;;;;;5048436;28;20091;-72
2022/12/15 11:35:47;;;;;;;14.88;8.98;;;5.30;64.90;;;;;;5049980;28;20165;-70
2022/12/15 11:38:38;;;;;;;12.18;7.55;;;5.30;66.40;;;;;;5053821;28;20056;-72
2022/12/15 11:41:23;;;;;;;13.23;7.82;;;5.50;66.00;;;;;;5045495;28;20025;-72
2022/12/15 11:43:57;;;;;;;12.93;7.00;;;5.70;65.50;;;;;;4700481;28;10000614;-71
2022/12/15 11:46:26;;;;;;;14.20;6.38;;;6.00;63.50;;;;;;5055119;28;20025;-72
2022/12/15 11:49:16;;;;;;;12.80;6.40;;;6.40;62.10;;;;;;5057745;28;20568;-72
2022/12/15 11:52:10;;;;;;;12.90;5.82;;;6.80;59.00;;;;;;5039133;28;20504;-71
2022/12/15 11:54:53;;;;;;;11.45;5.95;;;7.00;59.30;;;;;;5035782;28;20439;-71
2022/12/15 11:57:47;;;;;;;12.55;6.45;;;7.10;60.30;;;;;;5044308;28;20036;-72
2022/12/15 12:00:17;;;;;;;13.60;6.50;;;7.20;56.50;;;;;;5053786;28;20036;-72
2022/12/15 12:02:50;;;;;;;12.38;6.35;;;7.30;57.30;;;;;;5052007;28;20112;-72
2022/12/15 12:05:25;;;;;;;14.15;7.78;;;7.40;57.00;;;;;;5052115;28;20060;-72
2022/12/15 12:08:15;;;;;;;12.48;6.97;;;7.40;56.40;;;;;;5051390;28;20035;-73
2022/12/15 12:10:52;;;;;;;14.80;6.47;;;7.30;58.20;;;;;;5049483;28;20023;-75
2022/12/15 12:13:32;;;;;;;11.75;6.32;;;7.40;58.20;;;;;;5048348;28;20044;-74
2022/12/15 12:16:16;;;;;;;12.52;6.47;;;7.40;57.60;;;;;;5043284;28;20561;-76
2022/12/15 12:18:55;;;;;;;16.65;6.80;;;7.50;56.40;;;;;;5060292;28;20051;-75
2022/12/15 12:21:30;;;;;;;9.98;5.38;;;7.50;56.30;;;;;;5051680;28;20044;-72
2022/12/15 12:24:02;;;;;;;9.85;5.75;;;7.10;55.70;;;;;;5051941;28;20064;-74
2022/12/15 12:26:42;;;;;;;12.55;5.40;;;7.20;56.00;;;;;;5047648;28;20020;-73
2022/12/15 12:29:24;;;;;;;8.13;4.75;;;6.80;55.80;;;;;;5058066;28;20028;-73
2022/12/15 12:31:52;;;;;;;;;;;7.00;55.90;;;;;;5052732;28;20474;-72
2022/12/15 12:34:45;;;;;;;11.25;5.35;;;6.80;56.10;;;;;;5058764;28;19919;-71
2022/12/15 12:37:33;;;;;;;13.88;5.70;;;6.90;56.60;;;;;;5059931;28;20111;-72
2022/12/15 12:40:18;;;;;;;10.07;4.82;;;6.90;56.30;;;;;;5058591;28;20029;-71
2022/12/15 12:42:56;;;;;;;10.48;5.25;;;7.00;57.30;;;;;;5039420;28;20450;-71
2022/12/15 12:45:32;;;;;;;8.55;4.65;;;6.90;56.40;;;;;;5039487;28;20025;-72
2022/12/15 12:48:05;;;;;;;7.25;3.25;;;7.00;57.20;;;;;;5049506;28;20077;-71
2022/12/15 12:50:33;;;;;;;12.05;3.45;;;7.10;55.80;;;;;;5059379;28;20074;-71
2022/12/15 12:53:01;;;;;;;6.82;2.85;;;7.20;57.50;;;;;;5057141;28;20037;-72
2022/12/15 12:55:41;;;;;;;7.20;3.00;;;7.30;55.80;;;;;;5050289;28;20033;-72
2022/12/15 12:58:32;;;;;;;6.93;2.80;;;7.30;55.50;;;;;;5049341;28;20031;-72
2022/12/15 13:01:23;;;;;;;7.68;3.13;;;7.30;56.00;;;;;;5045548;28;20540;-73
2022/12/15 13:04:06;;;;;;;8.23;2.70;;;7.30;56.20;;;;;;5046491;28;21028;-72
2022/12/15 13:06:34;;;;;;;5.97;2.63;;;6.90;55.90;;;;;;5046095;28;20032;-72
2022/12/15 13:09:15;;;;;;;5.15;2.60;;;7.00;56.70;;;;;;5042140;28;20117;-72
2022/12/15 13:11:47;;;;;;;4.20;2.45;;;6.90;56.00;;;;;;5049128;28;20154;-72
2022/12/15 13:14:18;;;;;;;6.57;2.72;;;7.00;56.30;;;;;;5041814;28;20032;-72
2022/12/15 13:16:46;;;;;;;6.03;2.92;;;6.90;56.40;;;;;;5042718;28;20456;-72
2022/12/15 13:19:12;;;;;;;6.50;2.60;;;7.00;56.00;;;;;;5053311;28;20577;-72
2022/12/15 13:21:41;;;;;;;8.20;3.03;;;7.00;56.80;;;;;;5040557;28;20033;-71
2022/12/15 13:24:31;;;;;;;6.93;2.97;;;7.00;56.80;;;;;;5051439;28;20396;-72
2022/12/15 13:27:13;;;;;;;12.27;3.58;;;7.00;55.80;;;;;;5053772;28;20028;-72
2022/12/15 13:30:13;;;;;;;9.23;3.10;;;6.90;53.90;;;;;;5054055;28;20055;-71
2022/12/15 13:32:53;;;;;;;7.68;3.28;;;6.80;57.10;;;;;;5045523;28;20025;-72
2022/12/15 13:35:30;;;;;;;7.38;4.07;;;6.80;57.00;;;;;;5053188;28;20044;-72
2022/12/15 13:38:06;;;;;;;9.77;4.22;;;6.50;58.20;;;;;;5054449;28;20043;-72
2022/12/15 13:40:35;;;;;;;7.97;3.70;;;6.50;56.50;;;;;;5035397;28;20048;-72
2022/12/15 13:43:03;;;;;;;9.63;3.53;;;6.50;57.80;;;;;;5050246;28;20084;-71
2022/12/15 13:45:52;;;;;;;5.10;3.45;;;6.30;56.90;;;;;;5045620;28;20093;-71
2022/12/15 13:48:30;;;;;;;8.18;3.78;;;6.00;55.40;;;;;;5057972;28;20074;-71
2022/12/15 13:51:02;;;;;;;7.88;3.58;;;6.00;58.40;;;;;;5058384;28;20076;-72
2022/12/15 13:53:37;;;;;;;6.40;3.38;;;5.80;59.30;;;;;;5053768;28;20031;-71
2022/12/15 13:56:36;;;;;;;7.25;3.90;;;5.60;59.60;;;;;;5057732;28;20099;-71
2022/12/15 13:59:15;;;;;;;7.95;3.83;;;5.50;59.20;;;;;;5056508;28;20025;-71
2022/12/15 14:01:49;;;;;;;6.20;3.40;;;5.20;61.30;;;;;;5056542;28;20032;-71
2022/12/15 14:04:15;;;;;;;6.10;3.40;;;5.10;62.30;;;;;;5051085;28;20076;-72
2022/12/15 14:06:56;;;;;;;9.85;3.38;;;4.90;62.70;;;;;;5052562;28;20063;-71
2022/12/15 14:09:32;;;;;;;7.97;3.90;;;4.70;64.30;;;;;;5037226;28;20029;-72
2022/12/15 14:12:04;;;;;;;10.95;3.80;;;4.50;65.70;;;;;;5052942;28;20051;-72
2022/12/15 14:14:36;;;;;;;6.03;3.25;;;4.30;66.30;;;;;;5058546;28;20024;-72
2022/12/15 14:17:11;;;;;;;7.82;3.45;;;4.10;66.60;;;;;;5060978;28;20038;-71
2022/12/15 14:19:41;;;;;;;7.25;3.35;;;3.90;67.60;;;;;;5049513;28;20452;-72
2022/12/15 14:22:28;;;;;;;9.23;3.90;;;3.80;68.60;;;;;;5056704;28;20040;-71
2022/12/15 14:25:12;;;;;;;8.07;3.90;;;3.70;69.60;;;;;;5054174;28;20078;-71
2022/12/15 14:27:37;;;;;;;8.18;3.88;;;3.50;69.70;;;;;;5044901;28;20116;-71
2022/12/15 14:30:29;;;;;;;11.02;4.25;;;3.30;70.50;;;;;;5041738;28;20464;-71
2022/12/15 14:33:00;;;;;;;9.40;3.92;;;3.10;73.40;;;;;;5044924;28;20036;-71
2022/12/15 14:35:37;;;;;;;7.70;4.22;;;3.00;74.60;;;;;;5056447;28;20126;-71
2022/12/15 14:38:11;;;;;;;12.25;4.43;;;2.90;75.40;;;;;;5048195;28;20444;-71
2022/12/15 14:40:38;;;;;;;12.88;5.22;;;2.80;76.10;;;;;;5056587;28;20483;-71
2022/12/15 14:43:19;;;;;;;13.30;5.07;;;2.70;78.50;;;;;;5053772;28;20912;-70
2022/12/15 14:45:49;;;;;;;6.00;4.20;;;2.60;79.00;;;;;;5034197;28;20094;-70
2022/12/15 14:48:28;;;;;;;10.38;4.32;;;2.40;77.80;;;;;;5057809;28;20032;-70
2022/12/15 14:50:57;;;;;;;12.18;4.53;;;2.30;81.20;;;;;;5060241;28;20039;-71
2022/12/15 14:53:32;;;;;;;10.65;4.25;;;2.30;79.80;;;;;;5055039;28;20032;-70
2022/12/15 14:56:12;;;;;;;10.45;4.82;;;2.10;82.10;;;;;;5051468;28;20398;-70
2022/12/15 14:58:40;;;;;;;10.20;4.30;;;2.10;82.30;;;;;;5057711;28;20031;-71
2022/12/15 15:01:41;;;;;;;7.25;3.95;;;1.90;84.00;;;;;;5055670;28;20143;-69
2022/12/15 15:04:22;;;;;;;5.97;3.38;;;1.90;85.70;;;;;;5046941;28;20496;-70
2022/12/15 15:06:53;;;;;;;10.07;4.00;;;1.80;86.50;;;;;;5048988;28;20032;-71
2022/12/15 15:09:24;;;;;;;9.35;4.50;;;1.80;85.50;;;;;;5056869;28;20471;-71
2022/12/15 15:11:54;;;;;;;13.40;5.22;;;1.50;86.50;;;;;;5046588;28;20032;-71
2022/12/15 15:14:27;;;;;;;12.80;5.43;;;1.50;89.50;;;;;;5055873;28;20043;-70
2022/12/15 15:17:15;;;;;;;11.23;4.85;;;1.40;90.80;;;;;;5050427;28;20580;-70
2022/12/15 15:20:04;;;;;;;10.43;5.18;;;1.30;90.00;;;;;;5048202;28;20472;-70
2022/12/15 15:22:40;;;;;;;13.70;6.35;;;1.30;90.70;;;;;;5055444;28;20078;-70
2022/12/15 15:25:28;;;;;;;10.50;4.50;;;1.20;91.40;;;;;;5043134;28;20116;-70
2022/12/15 15:28:12;;;;;;;11.75;5.57;;;1.10;92.60;;;;;;5050307;28;20021;-70
2022/12/15 15:30:45;;;;;;;35.90;17.58;;;1.00;93.50;;;;;;5057908;28;20050;-70
2022/12/15 15:33:12;;;;;;;34.70;14.55;;;0.80;93.50;;;;;;5057204;28;20029;-70
2022/12/15 15:35:40;;;;;;;13.40;6.53;;;0.70;93.40;;;;;;5044718;28;20470;-70